Time;durP1;ratioP1;P1;durP2;ratioP2;P2;SDS_P1;SDS_P2;PMS_P1;PMS_P2;Temp;Humidity;BMP_temperature;BMP_pressure;BME280_temperature;BME280_humidity;BME280_pressure;Samples;Min_cycle;Max_cycle;Signal;HPM_P1;HPM_P2
2021/04/30 00:00:43;;;;;;;4.90;4.40;;;10.80;66.50;;;;;;5017222;28;20182;-85
2021/04/30 00:03:09;;;;;;;5.30;4.90;;;10.70;66.30;;;;;;5019836;28;20188;-84
2021/04/30 00:05:35;;;;;;;4.40;4.00;;;10.50;67.10;;;;;;5019299;28;20293;-85
2021/04/30 00:08:01;;;;;;;5.00;4.60;;;10.40;67.60;;;;;;5018714;28;20198;-85
2021/04/30 00:10:27;;;;;;;4.73;4.33;;;10.20;68.30;;;;;;5018861;28;20192;-85
2021/04/30 00:12:54;;;;;;;4.43;4.13;;;10.10;69.10;;;;;;5021619;28;20182;-84
2021/04/30 00:15:20;;;;;;;4.83;4.33;;;10.20;68.70;;;;;;5023040;28;20272;-85
2021/04/30 00:17:45;;;;;;;5.20;4.80;;;10.50;68.70;;;;;;5022981;28;20221;-85
2021/04/30 00:20:13;;;;;;;4.67;4.30;;;10.60;67.90;;;;;;5022752;28;20610;-85
2021/04/30 00:22:39;;;;;;;4.90;4.43;;;10.60;67.80;;;;;;5022486;28;20181;-85
2021/04/30 00:25:05;;;;;;;4.70;4.30;;;10.60;67.50;;;;;;5020728;28;20178;-85
2021/04/30 00:27:30;;;;;;;4.70;4.30;;;10.60;67.90;;;;;;5021179;28;20191;-85
2021/04/30 00:29:56;;;;;;;4.97;4.50;;;10.60;67.40;;;;;;5021844;28;20198;-84
2021/04/30 00:32:22;;;;;;;4.83;4.43;;;10.60;67.60;;;;;;5021956;28;20182;-84
2021/04/30 00:34:48;;;;;;;4.77;4.27;;;10.50;68.10;;;;;;5021434;28;20626;-84
2021/04/30 00:37:13;;;;;;;4.23;3.83;;;10.40;68.60;;;;;;5023261;28;20421;-84
2021/04/30 00:39:39;;;;;;;4.07;3.77;;;10.50;68.30;;;;;;5035163;28;20365;-84
2021/04/30 00:42:05;;;;;;;4.13;3.73;;;10.50;68.40;;;;;;5034228;28;20245;-84
2021/04/30 00:44:31;;;;;;;3.83;3.53;;;10.60;68.00;;;;;;5026523;28;20318;-84
2021/04/30 00:46:58;;;;;;;4.67;4.27;;;10.50;67.40;;;;;;5023037;28;20273;-84
2021/04/30 00:49:23;;;;;;;4.27;3.87;;;10.50;67.30;;;;;;5023238;28;20186;-84
2021/04/30 00:51:49;;;;;;;4.17;3.90;;;10.50;67.40;;;;;;5022901;28;20194;-85
2021/04/30 00:54:15;;;;;;;4.50;4.10;;;10.50;67.00;;;;;;5021520;28;20190;-85
2021/04/30 00:56:41;;;;;;;4.40;4.10;;;10.50;67.30;;;;;;5025612;28;20217;-85
2021/04/30 00:59:07;;;;;;;5.20;4.70;;;10.50;67.50;;;;;;5026534;28;20217;-85
2021/04/30 01:01:33;;;;;;;4.47;4.13;;;10.50;67.10;;;;;;5025652;28;20212;-85
2021/04/30 01:04:00;;;;;;;4.50;4.20;;;10.50;67.80;;;;;;5025670;28;20205;-85
2021/04/30 01:06:25;;;;;;;4.10;3.80;;;10.40;67.90;;;;;;5021693;28;20209;-85
2021/04/30 01:08:51;;;;;;;5.97;4.23;;;10.50;67.60;;;;;;5021458;28;20241;-84
2021/04/30 01:11:17;;;;;;;4.97;4.50;;;10.50;67.90;;;;;;5022633;28;20200;-85
2021/04/30 01:13:43;;;;;;;4.90;4.40;;;10.40;66.80;;;;;;5022777;28;20190;-85
2021/04/30 01:16:09;;;;;;;4.90;4.50;;;10.50;66.90;;;;;;5021550;28;20221;-84
2021/04/30 01:18:47;;;;;;;5.17;4.27;;;10.40;67.10;;;;;;5023051;28;20279;-84
2021/04/30 01:21:14;;;;;;;5.80;4.17;;;10.40;67.00;;;;;;5023734;28;20177;-85
2021/04/30 01:23:51;;;;;;;4.27;3.93;;;10.40;67.20;;;;;;5020558;28;20184;-85
2021/04/30 01:26:18;;;;;;;4.73;4.33;;;10.50;66.90;;;;;;5022906;28;20185;-85
2021/04/30 01:28:44;;;;;;;4.63;4.30;;;10.40;66.60;;;;;;5024146;28;20207;-85
2021/04/30 01:31:10;;;;;;;5.07;4.57;;;10.30;67.00;;;;;;5025242;28;20224;-84
2021/04/30 01:33:35;;;;;;;5.20;4.80;;;10.30;66.80;;;;;;5026493;28;20185;-85
2021/04/30 01:36:02;;;;;;;4.97;4.57;;;10.30;66.80;;;;;;5028527;28;20217;-85
2021/04/30 01:38:28;;;;;;;4.50;4.20;;;10.10;67.40;;;;;;5027259;28;20221;-84
2021/04/30 01:40:53;;;;;;;5.93;4.63;;;10.10;67.80;;;;;;5027791;28;20196;-84
2021/04/30 01:43:21;;;;;;;4.80;4.40;;;10.10;67.80;;;;;;5027857;28;20212;-85
2021/04/30 01:45:52;;;;;;;4.53;4.17;;;10.00;67.70;;;;;;5027519;28;20182;-85
2021/04/30 01:48:19;;;;;;;5.27;4.87;;;9.90;68.20;;;;;;5010830;28;20213;-85
2021/04/30 01:50:45;;;;;;;6.87;6.27;;;9.90;68.30;;;;;;5027402;28;20193;-85
2021/04/30 01:53:13;;;;;;;5.33;4.83;;;9.90;68.00;;;;;;5027614;28;20189;-85
2021/04/30 01:55:39;;;;;;;8.67;7.07;;;9.80;67.90;;;;;;5026958;28;20214;-85
2021/04/30 01:58:05;;;;;;;5.30;4.90;;;9.60;68.10;;;;;;5026999;28;20208;-85
2021/04/30 02:00:31;;;;;;;5.33;4.83;;;9.60;69.00;;;;;;5026871;28;20185;-85
2021/04/30 02:02:58;;;;;;;5.70;5.10;;;9.70;69.10;;;;;;5028056;28;20744;-85
2021/04/30 02:05:28;;;;;;;5.50;5.10;;;9.70;69.00;;;;;;5027150;28;20182;-85
2021/04/30 02:07:54;;;;;;;5.13;4.73;;;9.80;68.30;;;;;;5027038;28;20316;-85
2021/04/30 02:10:23;;;;;;;5.17;4.67;;;9.80;68.20;;;;;;5027291;28;20197;-85
2021/04/30 02:12:50;;;;;;;5.80;5.37;;;9.90;68.30;;;;;;5010514;28;20348;-84
2021/04/30 02:15:17;;;;;;;7.37;5.37;;;9.80;68.10;;;;;;5026736;28;20202;-85
2021/04/30 02:17:43;;;;;;;5.83;5.27;;;9.50;68.40;;;;;;5023750;28;20201;-85
2021/04/30 02:20:10;;;;;;;5.50;5.00;;;9.30;70.00;;;;;;5022618;28;20213;-85
2021/04/30 02:22:37;;;;;;;6.27;5.30;;;9.20;71.30;;;;;;5023227;28;20276;-85
2021/04/30 02:25:04;;;;;;;5.50;5.10;;;9.30;71.80;;;;;;5021419;28;20213;-85
2021/04/30 02:27:30;;;;;;;6.03;5.53;;;9.40;71.10;;;;;;5022493;28;20209;-85
2021/04/30 02:29:55;;;;;;;5.10;4.63;;;9.20;69.60;;;;;;5023055;28;20182;-84
2021/04/30 02:32:22;;;;;;;5.33;4.83;;;9.20;70.20;;;;;;5023439;28;20186;-85
2021/04/30 02:34:48;;;;;;;5.50;5.00;;;9.20;70.00;;;;;;5023260;28;20249;-84
2021/04/30 02:37:14;;;;;;;5.83;5.33;;;9.40;69.70;;;;;;5022741;28;20246;-85
2021/04/30 02:39:40;;;;;;;5.40;5.00;;;9.40;69.20;;;;;;5021771;28;20182;-85
2021/04/30 02:42:06;;;;;;;6.87;6.17;;;9.40;69.30;;;;;;5022420;28;20603;-85
2021/04/30 02:44:31;;;;;;;6.07;5.57;;;9.40;68.70;;;;;;5022435;28;20216;-84
2021/04/30 02:46:58;;;;;;;5.30;4.80;;;9.40;69.20;;;;;;5021585;28;20202;-85
2021/04/30 02:52:25;;;;;;;7.17;6.50;;;9.40;69.70;;;;;;4980210;28;20218;-84
2021/04/30 02:54:51;;;;;;;5.60;5.10;;;9.10;69.60;;;;;;5013079;28;20543;-85
2021/04/30 02:57:17;;;;;;;6.97;6.37;;;8.80;72.10;;;;;;5021438;28;20613;-85
2021/04/30 02:59:43;;;;;;;6.63;6.07;;;8.70;71.50;;;;;;5020408;28;20181;-85
2021/04/30 03:02:09;;;;;;;5.60;5.20;;;8.50;72.40;;;;;;5021333;28;20777;-84
2021/04/30 03:04:35;;;;;;;6.17;5.67;;;8.50;73.50;;;;;;5021439;28;20213;-84
2021/04/30 03:07:01;;;;;;;7.67;7.07;;;8.70;72.90;;;;;;5021066;28;20232;-84
2021/04/30 03:09:26;;;;;;;9.73;7.80;;;8.90;71.60;;;;;;5019871;28;20193;-84
2021/04/30 03:11:52;;;;;;;7.97;5.40;;;8.90;71.90;;;;;;5016452;28;20216;-84
2021/04/30 03:14:18;;;;;;;6.27;5.60;;;8.80;71.90;;;;;;5016558;28;20213;-84
2021/04/30 03:16:43;;;;;;;6.90;5.97;;;8.80;72.30;;;;;;5016436;28;20225;-84
2021/04/30 03:19:09;;;;;;;5.83;5.43;;;8.70;72.90;;;;;;5018795;28;20221;-84
2021/04/30 03:21:36;;;;;;;6.97;6.10;;;8.70;73.00;;;;;;5029808;28;20393;-84
2021/04/30 03:24:02;;;;;;;5.77;5.27;;;8.60;71.90;;;;;;5032888;28;20242;-84
2021/04/30 03:26:28;;;;;;;6.33;5.77;;;8.40;73.80;;;;;;5028054;28;20182;-85
2021/04/30 03:28:53;;;;;;;5.90;5.23;;;8.40;73.50;;;;;;5023187;28;20196;-85
2021/04/30 03:31:19;;;;;;;6.43;5.93;;;8.30;75.10;;;;;;5022454;28;20205;-85
2021/04/30 03:33:45;;;;;;;5.57;5.17;;;8.30;74.20;;;;;;5022020;28;20265;-84
2021/04/30 03:36:10;;;;;;;5.93;5.43;;;8.30;75.10;;;;;;5021930;28;20205;-84
2021/04/30 03:38:36;;;;;;;6.53;5.93;;;8.50;74.50;;;;;;5020158;28;20597;-85
2021/04/30 03:41:02;;;;;;;6.53;5.93;;;8.60;73.70;;;;;;5021903;28;20314;-84
2021/04/30 03:43:27;;;;;;;7.10;6.27;;;8.60;74.10;;;;;;5020359;28;20190;-84
2021/04/30 03:45:53;;;;;;;5.80;5.40;;;8.60;73.90;;;;;;5021360;28;20261;-85
2021/04/30 03:48:24;;;;;;;6.23;5.67;;;8.50;74.50;;;;;;5020746;28;20217;-85
2021/04/30 03:50:50;;;;;;;6.90;6.10;;;8.50;74.80;;;;;;5020923;28;20182;-85
2021/04/30 03:53:16;;;;;;;6.40;5.90;;;8.60;74.40;;;;;;5020306;28;20189;-85
2021/04/30 03:55:43;;;;;;;6.40;5.90;;;8.50;75.00;;;;;;5021409;28;20305;-84
2021/04/30 03:58:08;;;;;;;6.50;6.00;;;8.50;74.80;;;;;;5023006;28;20208;-84
2021/04/30 04:00:35;;;;;;;7.20;6.60;;;8.50;75.00;;;;;;5021511;28;20549;-84
2021/04/30 04:03:00;;;;;;;7.17;6.47;;;8.40;75.20;;;;;;5023249;28;20264;-84
2021/04/30 04:05:26;;;;;;;6.60;6.10;;;8.30;75.80;;;;;;5021125;28;20177;-84
2021/04/30 04:07:52;;;;;;;7.17;6.47;;;8.20;76.20;;;;;;5021241;28;20216;-84
2021/04/30 04:10:18;;;;;;;6.77;6.17;;;8.00;77.10;;;;;;5021096;28;20278;-84
2021/04/30 04:12:43;;;;;;;9.93;7.20;;;7.80;78.50;;;;;;5020119;28;20243;-84
2021/04/30 04:15:10;;;;;;;6.97;6.30;;;7.70;79.50;;;;;;5023141;28;20181;-84
2021/04/30 04:17:36;;;;;;;6.37;5.77;;;7.60;80.20;;;;;;5022104;28;20254;-84
2021/04/30 04:20:05;;;;;;;7.03;6.00;;;7.70;80.60;;;;;;5021952;28;20186;-85
2021/04/30 04:22:31;;;;;;;7.33;6.73;;;7.80;80.20;;;;;;5023415;28;20178;-85
2021/04/30 04:24:57;;;;;;;6.87;6.17;;;7.70;81.00;;;;;;5028968;28;20204;-84
2021/04/30 04:27:23;;;;;;;10.40;9.60;;;7.60;82.40;;;;;;5034972;28;20213;-84
2021/04/30 04:29:49;;;;;;;8.37;7.77;;;7.70;82.40;;;;;;5032066;28;20189;-85
2021/04/30 04:32:15;;;;;;;9.03;6.33;;;7.80;81.10;;;;;;5024021;28;20186;-85
2021/04/30 04:34:40;;;;;;;6.53;5.93;;;8.10;79.80;;;;;;5018548;28;20249;-86
2021/04/30 04:37:06;;;;;;;6.77;6.17;;;8.40;79.20;;;;;;5017384;28;20221;-86
2021/04/30 04:39:32;;;;;;;6.57;5.97;;;8.60;78.20;;;;;;5018511;28;20216;-86
2021/04/30 04:42:00;;;;;;;6.17;5.67;;;8.80;77.30;;;;;;5021189;28;20182;-86
2021/04/30 04:44:27;;;;;;;7.17;6.47;;;8.90;76.70;;;;;;5018176;28;20174;-86
2021/04/30 04:46:52;;;;;;;7.80;7.10;;;9.10;76.20;;;;;;5016273;28;20201;-86
2021/04/30 04:49:18;;;;;;;6.90;6.30;;;9.30;74.70;;;;;;5018937;28;20209;-86
2021/04/30 04:51:44;;;;;;;19.60;11.13;;;9.30;74.30;;;;;;5016999;28;20213;-85
2021/04/30 04:54:09;;;;;;;16.13;13.43;;;9.30;74.40;;;;;;5020375;28;20236;-86
2021/04/30 04:56:35;;;;;;;16.33;13.00;;;9.40;74.90;;;;;;5019389;28;20205;-85
2021/04/30 04:59:02;;;;;;;10.83;9.70;;;9.40;74.80;;;;;;5019872;28;20174;-86
2021/04/30 05:01:28;;;;;;;7.80;7.00;;;9.30;74.80;;;;;;5030786;28;20248;-85
2021/04/30 05:03:54;;;;;;;7.40;6.80;;;9.00;77.40;;;;;;5040104;28;20205;-84
2021/04/30 05:06:20;;;;;;;7.93;7.23;;;8.70;78.60;;;;;;5027869;28;20228;-85
2021/04/30 05:08:45;;;;;;;8.20;7.13;;;8.60;78.00;;;;;;5001497;28;20272;-86
2021/04/30 05:11:11;;;;;;;8.20;7.50;;;8.60;77.20;;;;;;5017408;28;20198;-86
2021/04/30 05:13:37;;;;;;;8.57;7.77;;;8.70;75.90;;;;;;5018269;28;20316;-86
2021/04/30 05:16:03;;;;;;;9.13;8.33;;;8.90;74.20;;;;;;5024882;28;20228;-86
2021/04/30 05:18:31;;;;;;;9.47;8.67;;;9.10;72.00;;;;;;5018248;28;20227;-85
2021/04/30 05:20:57;;;;;;;9.67;8.70;;;9.30;71.20;;;;;;5020330;28;20173;-84
2021/04/30 05:23:23;;;;;;;9.80;8.97;;;9.30;70.00;;;;;;5018834;28;20215;-85
2021/04/30 05:25:52;;;;;;;11.33;10.37;;;9.30;70.40;;;;;;5018500;28;20189;-84
2021/04/30 05:28:17;;;;;;;11.20;10.30;;;9.20;70.00;;;;;;5019901;28;20201;-85
2021/04/30 05:30:43;;;;;;;9.13;8.37;;;9.10;70.70;;;;;;5018968;28;20240;-85
2021/04/30 05:33:09;;;;;;;10.40;9.50;;;9.10;70.90;;;;;;5020889;28;20716;-84
2021/04/30 05:35:35;;;;;;;10.47;9.47;;;9.00;71.90;;;;;;5020836;28;20345;-84
2021/04/30 05:38:01;;;;;;;9.87;8.77;;;9.00;71.60;;;;;;5020252;28;20521;-84
2021/04/30 05:40:27;;;;;;;9.90;9.00;;;9.00;72.10;;;;;;5020207;28;20192;-84
2021/04/30 05:42:53;;;;;;;8.73;7.90;;;9.10;71.00;;;;;;5024606;28;20177;-85
2021/04/30 05:45:18;;;;;;;9.57;8.67;;;9.10;71.20;;;;;;5024439;28;20189;-85
2021/04/30 05:47:45;;;;;;;9.60;8.70;;;9.20;69.30;;;;;;5024502;28;20201;-85
2021/04/30 05:50:12;;;;;;;9.47;8.67;;;9.10;67.60;;;;;;5023398;28;20713;-85
2021/04/30 05:52:38;;;;;;;11.80;10.77;;;9.10;68.80;;;;;;5021411;28;20193;-85
2021/04/30 05:55:05;;;;;;;10.23;9.37;;;9.30;66.80;;;;;;5022082;28;20182;-84
2021/04/30 05:57:31;;;;;;;11.30;10.03;;;9.40;65.70;;;;;;5020043;28;20205;-85
2021/04/30 05:59:57;;;;;;;10.67;9.67;;;9.30;65.20;;;;;;5023798;28;20193;-85
2021/04/30 06:02:22;;;;;;;10.43;9.27;;;9.20;65.30;;;;;;5022422;28;20670;-85
2021/04/30 06:04:48;;;;;;;11.37;10.37;;;9.20;66.00;;;;;;5020822;28;20189;-85
2021/04/30 06:07:14;;;;;;;11.60;10.60;;;9.20;66.40;;;;;;5020201;28;20209;-85
2021/04/30 06:09:40;;;;;;;11.30;9.43;;;9.20;65.60;;;;;;5023352;28;20191;-83
2021/04/30 06:12:07;;;;;;;11.87;10.77;;;9.20;65.70;;;;;;5022700;28;20182;-85
2021/04/30 06:14:33;;;;;;;12.17;11.17;;;9.00;64.80;;;;;;5022328;28;20189;-84
2021/04/30 06:16:59;;;;;;;11.83;10.63;;;9.00;66.40;;;;;;5005244;28;20290;-83
2021/04/30 06:19:25;;;;;;;11.73;10.60;;;9.00;67.30;;;;;;5023001;28;20188;-83
2021/04/30 06:21:51;;;;;;;11.23;10.33;;;9.10;67.60;;;;;;5022533;28;20185;-83
2021/04/30 06:24:17;;;;;;;11.73;10.70;;;9.20;67.40;;;;;;5022466;28;20252;-85
2021/04/30 06:26:43;;;;;;;10.90;9.80;;;9.10;67.60;;;;;;5021774;28;20201;-85
2021/04/30 06:29:09;;;;;;;12.70;11.40;;;9.20;68.00;;;;;;5025021;28;20876;-85
2021/04/30 06:31:36;;;;;;;12.17;10.90;;;9.20;67.60;;;;;;5034426;28;20192;-86
2021/04/30 06:34:03;;;;;;;11.37;10.37;;;9.20;66.50;;;;;;5025310;28;20193;-85
2021/04/30 06:36:28;;;;;;;11.03;9.93;;;9.20;67.80;;;;;;5025892;28;20214;-85
2021/04/30 06:38:54;;;;;;;12.33;11.17;;;9.00;67.70;;;;;;5023713;28;20213;-85
2021/04/30 06:41:20;;;;;;;10.93;9.93;;;9.00;67.70;;;;;;5024169;28;20213;-85
2021/04/30 06:46:13;;;;;;;11.30;10.30;;;9.00;67.50;;;;;;5034918;28;20222;-86
2021/04/30 06:48:40;;;;;;;12.30;11.13;;;9.00;67.60;;;;;;5042075;28;20215;-83
2021/04/30 06:51:06;;;;;;;11.87;10.33;;;9.00;68.00;;;;;;5023070;28;20193;-84
2021/04/30 06:53:32;;;;;;;12.53;11.43;;;9.00;68.00;;;;;;5036406;28;20181;-84
2021/04/30 06:55:58;;;;;;;12.63;11.43;;;9.00;68.30;;;;;;5049106;28;20204;-82
2021/04/30 06:58:23;;;;;;;12.73;11.43;;;9.00;68.60;;;;;;5054860;28;20217;-87
2021/04/30 07:00:52;;;;;;;12.57;11.00;;;9.00;68.30;;;;;;5035203;28;20798;-86
2021/04/30 07:03:20;;;;;;;11.77;10.53;;;9.10;68.80;;;;;;5035688;28;20196;-84
2021/04/30 07:05:46;;;;;;;11.87;10.77;;;9.10;68.40;;;;;;5038661;28;20189;-86
2021/04/30 07:08:12;;;;;;;11.83;10.73;;;9.10;67.80;;;;;;5036166;28;20677;-86
2021/04/30 07:10:37;;;;;;;13.27;12.00;;;9.20;67.40;;;;;;5031859;28;20193;-87
2021/04/30 07:13:18;;;;;;;11.27;10.33;;;9.10;67.70;;;;;;5041148;28;20766;-85
2021/04/30 07:15:44;;;;;;;12.10;10.90;;;9.20;67.70;;;;;;5028318;28;20220;-87
2021/04/30 07:18:10;;;;;;;12.07;10.90;;;9.20;67.80;;;;;;5033245;28;20210;-88
2021/04/30 07:20:36;;;;;;;12.87;11.67;;;9.10;67.30;;;;;;5030894;28;20177;-84
2021/04/30 07:23:03;;;;;;;12.10;10.93;;;9.10;67.80;;;;;;5028811;28;20180;-84
2021/04/30 07:25:30;;;;;;;13.60;12.30;;;9.00;68.30;;;;;;5025375;28;20276;-84
2021/04/30 07:27:56;;;;;;;14.47;12.10;;;8.90;69.40;;;;;;5031500;28;20212;-84
2021/04/30 07:30:22;;;;;;;13.53;12.23;;;8.90;70.50;;;;;;5026568;28;20182;-82
2021/04/30 07:32:48;;;;;;;12.33;11.20;;;8.80;70.80;;;;;;5029473;28;20212;-87
2021/04/30 07:35:14;;;;;;;13.30;12.00;;;8.80;70.60;;;;;;5035076;28;20192;-86
2021/04/30 07:37:40;;;;;;;13.63;12.33;;;8.90;72.20;;;;;;5032072;28;20238;-85
2021/04/30 07:40:08;;;;;;;12.20;11.00;;;8.90;71.70;;;;;;5023936;28;20272;-85
2021/04/30 07:42:34;;;;;;;13.87;12.57;;;8.90;71.90;;;;;;5032347;28;20177;-85
2021/04/30 07:45:00;;;;;;;13.50;12.20;;;8.90;71.20;;;;;;5006376;28;20215;-87
2021/04/30 07:47:26;;;;;;;14.73;13.27;;;9.00;73.50;;;;;;5025300;28;20642;-86
2021/04/30 07:49:51;;;;;;;13.43;12.23;;;9.10;73.30;;;;;;5025318;28;20189;-86
2021/04/30 07:52:17;;;;;;;12.97;11.67;;;9.10;73.90;;;;;;5034137;28;20188;-86
2021/04/30 07:54:43;;;;;;;14.70;13.30;;;9.10;74.00;;;;;;5021959;28;20199;-86
2021/04/30 07:57:09;;;;;;;13.83;12.53;;;9.10;73.10;;;;;;5030130;28;20217;-86
2021/04/30 07:59:35;;;;;;;13.70;12.40;;;9.20;74.30;;;;;;5037343;28;20669;-86
2021/04/30 08:02:03;;;;;;;13.13;11.47;;;9.20;73.30;;;;;;5027438;28;20248;-87
2021/04/30 08:04:28;;;;;;;11.07;10.07;;;9.30;74.40;;;;;;5023677;28;20184;-86
2021/04/30 08:06:54;;;;;;;14.27;12.80;;;9.40;73.80;;;;;;5023767;28;20218;-86
2021/04/30 08:09:20;;;;;;;13.63;12.33;;;9.50;74.20;;;;;;5023748;28;20201;-86
2021/04/30 08:11:45;;;;;;;12.80;10.93;;;9.60;73.40;;;;;;5033133;28;20185;-86
2021/04/30 08:14:11;;;;;;;14.80;13.30;;;9.70;72.90;;;;;;5031619;28;20189;-86
2021/04/30 08:16:37;;;;;;;13.77;12.37;;;9.80;72.50;;;;;;5025982;28;21042;-86
2021/04/30 08:19:04;;;;;;;14.80;13.23;;;9.80;73.80;;;;;;5027449;28;20244;-86
2021/04/30 08:21:30;;;;;;;13.73;12.50;;;9.60;74.30;;;;;;5028239;28;20212;-86
2021/04/30 08:23:56;;;;;;;14.33;12.93;;;9.60;76.20;;;;;;5023521;28;20180;-85
2021/04/30 08:26:23;;;;;;;15.70;14.10;;;9.70;77.30;;;;;;5027476;28;20247;-85
2021/04/30 08:28:50;;;;;;;15.50;14.03;;;9.50;77.40;;;;;;5026928;28;20249;-85
2021/04/30 08:31:16;;;;;;;15.00;13.70;;;9.50;77.60;;;;;;5028443;28;20267;-86
2021/04/30 08:33:41;;;;;;;15.67;14.27;;;9.50;79.40;;;;;;5025535;28;20185;-85
2021/04/30 08:36:07;;;;;;;14.40;13.13;;;9.60;78.80;;;;;;5024978;28;20213;-85
2021/04/30 08:38:33;;;;;;;15.70;14.30;;;9.60;78.30;;;;;;5026405;28;20220;-85
2021/04/30 08:40:59;;;;;;;17.13;15.53;;;9.80;78.80;;;;;;5033582;28;20248;-85
2021/04/30 08:43:25;;;;;;;16.33;14.80;;;9.70;78.30;;;;;;5030949;28;20613;-85
2021/04/30 08:45:54;;;;;;;17.37;15.67;;;9.60;78.70;;;;;;5047492;28;20202;-85
2021/04/30 08:48:21;;;;;;;17.10;15.50;;;9.60;79.80;;;;;;5041994;28;20204;-85
2021/04/30 08:50:47;;;;;;;17.50;15.77;;;9.40;80.00;;;;;;5048306;28;20189;-86
2021/04/30 08:53:14;;;;;;;17.30;15.70;;;9.40;80.90;;;;;;5031032;28;20189;-86
2021/04/30 08:55:40;;;;;;;18.03;16.33;;;9.30;80.50;;;;;;5025847;28;20217;-85
2021/04/30 08:58:08;;;;;;;15.90;14.40;;;9.30;81.10;;;;;;5037608;28;20224;-84
2021/04/30 09:00:35;;;;;;;17.97;16.07;;;9.40;80.50;;;;;;5036668;28;20189;-84
2021/04/30 09:03:00;;;;;;;18.50;16.83;;;9.60;80.30;;;;;;5034322;28;20247;-84
2021/04/30 09:05:31;;;;;;;17.93;16.20;;;9.50;82.10;;;;;;5032465;28;20197;-84
2021/04/30 09:07:59;;;;;;;19.80;17.90;;;9.50;82.90;;;;;;5032411;28;20321;-84
2021/04/30 09:10:27;;;;;;;18.90;17.10;;;9.40;83.80;;;;;;5031394;28;20208;-84
2021/04/30 09:13:23;;;;;;;18.87;17.03;;;9.40;83.30;;;;;;5034229;28;20178;-84
2021/04/30 09:16:04;;;;;;;18.57;16.87;;;9.40;82.50;;;;;;5027590;28;20234;-85
2021/04/30 09:18:32;;;;;;;18.60;16.80;;;9.40;82.30;;;;;;5035556;28;20205;-84
2021/04/30 09:21:09;;;;;;;19.33;17.03;;;9.40;83.50;;;;;;5041263;28;20189;-85
2021/04/30 09:23:39;;;;;;;18.60;16.57;;;9.30;85.00;;;;;;5040937;28;20181;-84
2021/04/30 09:26:20;;;;;;;20.17;18.27;;;9.20;83.80;;;;;;5039561;28;20235;-85
2021/04/30 09:29:09;;;;;;;19.63;17.73;;;9.40;84.40;;;;;;5034028;28;20289;-84
2021/04/30 09:31:39;;;;;;;19.00;17.13;;;9.40;84.50;;;;;;5037164;28;20209;-84
2021/04/30 09:34:28;;;;;;;20.37;18.27;;;9.30;85.20;;;;;;5038351;28;20185;-84
2021/04/30 09:36:55;;;;;;;18.23;16.30;;;9.30;85.30;;;;;;5040318;28;20306;-84
2021/04/30 09:39:21;;;;;;;18.23;16.57;;;9.40;84.40;;;;;;5040674;28;20173;-84
2021/04/30 09:42:17;;;;;;;19.17;17.27;;;9.50;83.90;;;;;;5039462;28;20186;-85
2021/04/30 09:44:45;;;;;;;18.37;16.57;;;9.60;83.90;;;;;;5039765;28;20240;-84
2021/04/30 09:47:17;;;;;;;18.63;16.77;;;9.60;82.50;;;;;;5040952;28;20235;-86
2021/04/30 09:49:44;;;;;;;18.03;16.27;;;9.40;83.30;;;;;;5037659;28;20208;-85
2021/04/30 09:52:12;;;;;;;18.23;16.53;;;9.40;82.50;;;;;;5038610;28;20204;-85
2021/04/30 09:54:38;;;;;;;17.43;15.83;;;9.30;84.00;;;;;;5033017;28;20220;-86
2021/04/30 09:57:12;;;;;;;23.63;16.93;;;9.30;83.50;;;;;;5034491;28;20300;-87
2021/04/30 09:59:41;;;;;;;17.00;15.30;;;9.30;82.50;;;;;;5040541;28;20188;-86
2021/04/30 10:02:27;;;;;;;18.63;16.73;;;9.20;82.10;;;;;;5043575;28;20185;-86
2021/04/30 10:05:06;;;;;;;17.43;15.53;;;9.20;83.30;;;;;;5043484;28;20244;-87
2021/04/30 10:07:34;;;;;;;22.07;16.97;;;9.10;83.00;;;;;;5042628;28;20264;-85
2021/04/30 10:10:08;;;;;;;21.10;15.63;;;9.10;83.00;;;;;;5040041;28;20842;-86
2021/04/30 10:12:35;;;;;;;17.97;16.27;;;9.20;84.90;;;;;;5044947;28;20184;-85
2021/04/30 10:15:01;;;;;;;17.10;15.30;;;9.30;83.80;;;;;;5048479;28;20189;-86
2021/04/30 10:17:27;;;;;;;17.63;15.73;;;9.50;82.20;;;;;;5046729;28;20497;-87
2021/04/30 10:19:54;;;;;;;21.13;19.10;;;9.50;81.80;;;;;;5041305;28;20182;-86
2021/04/30 10:22:24;;;;;;;19.23;17.53;;;9.50;82.20;;;;;;5043949;28;20176;-86
2021/04/30 10:24:52;;;;;;;19.57;17.67;;;9.50;82.60;;;;;;5032757;28;20180;-87
2021/04/30 10:27:26;;;;;;;17.33;15.50;;;9.60;84.80;;;;;;5041244;28;20211;-87
2021/04/30 10:30:24;;;;;;;17.77;16.00;;;9.60;83.00;;;;;;5033146;28;20287;-86
2021/04/30 10:32:53;;;;;;;17.80;15.80;;;9.60;82.60;;;;;;5041122;28;20204;-87
2021/04/30 10:35:51;;;;;;;17.33;15.60;;;9.70;83.60;;;;;;5038650;28;20670;-87
2021/04/30 10:38:20;;;;;;;17.20;15.60;;;9.80;82.60;;;;;;5034904;28;20205;-88
2021/04/30 10:41:04;;;;;;;17.33;15.70;;;9.80;83.10;;;;;;5033804;28;20196;-86
2021/04/30 10:43:31;;;;;;;17.53;15.83;;;9.80;83.20;;;;;;5038446;28;20192;-88
2021/04/30 10:45:59;;;;;;;16.60;14.20;;;9.70;82.00;;;;;;5028747;28;20206;-86
2021/04/30 10:48:25;;;;;;;17.07;15.57;;;9.80;81.80;;;;;;5034213;28;20221;-87
2021/04/30 10:50:51;;;;;;;17.97;16.17;;;9.70;82.70;;;;;;5035980;28;20245;-86
2021/04/30 10:53:23;;;;;;;18.37;16.40;;;9.70;83.20;;;;;;5035784;28;20274;-87
2021/04/30 10:55:50;;;;;;;17.83;16.23;;;9.60;82.00;;;;;;5025189;28;20274;-87
2021/04/30 10:58:39;;;;;;;16.90;15.40;;;9.70;81.60;;;;;;5022216;28;20363;-86
2021/04/30 11:01:22;;;;;;;16.60;14.90;;;9.50;83.00;;;;;;5015858;28;20216;-87
2021/04/30 11:04:07;;;;;;;18.20;16.50;;;9.50;84.40;;;;;;5028388;28;20173;-87
2021/04/30 11:06:34;;;;;;;17.37;15.87;;;9.40;83.40;;;;;;5031951;28;20195;-87
2021/04/30 11:09:01;;;;;;;17.77;16.07;;;9.30;85.20;;;;;;5028255;28;20248;-87
2021/04/30 11:11:53;;;;;;;17.57;15.80;;;9.40;84.10;;;;;;5025017;28;20212;-87
2021/04/30 11:14:19;;;;;;;16.30;14.80;;;9.30;84.40;;;;;;5031210;28;20243;-87
2021/04/30 11:16:49;;;;;;;16.83;15.33;;;9.40;85.00;;;;;;5036702;28;20229;-88
2021/04/30 11:19:15;;;;;;;15.50;14.00;;;9.40;82.20;;;;;;5026770;28;20202;-87
2021/04/30 11:21:50;;;;;;;16.03;14.57;;;9.30;82.40;;;;;;5018700;28;20199;-88
2021/04/30 11:24:43;;;;;;;15.33;13.97;;;9.10;84.70;;;;;;5031922;28;20219;-87
2021/04/30 11:27:11;;;;;;;14.30;12.93;;;9.20;82.50;;;;;;5032496;28;20235;-86
2021/04/30 11:29:38;;;;;;;14.63;13.33;;;9.10;83.30;;;;;;5037484;28;20189;-87
2021/04/30 11:32:27;;;;;;;15.13;13.83;;;9.10;83.20;;;;;;5040252;28;20263;-87
2021/04/30 11:34:55;;;;;;;14.53;13.17;;;9.20;82.20;;;;;;5022349;28;20193;-87
2021/04/30 11:37:23;;;;;;;13.70;12.30;;;9.20;79.40;;;;;;5027940;28;20252;-85
2021/04/30 11:39:59;;;;;;;12.60;11.40;;;9.30;81.10;;;;;;5027900;28;20589;-87
2021/04/30 11:42:29;;;;;;;14.20;12.70;;;9.50;81.30;;;;;;5028118;28;20878;-88
2021/04/30 11:44:55;;;;;;;15.07;13.67;;;9.70;80.50;;;;;;5024634;28;20196;-87
2021/04/30 11:47:31;;;;;;;14.93;13.60;;;9.70;78.70;;;;;;5032356;28;20208;-87
2021/04/30 11:49:59;;;;;;;14.20;12.80;;;9.90;80.80;;;;;;5025302;28;20673;-87
2021/04/30 11:52:38;;;;;;;13.10;11.90;;;9.70;80.70;;;;;;5026939;28;20212;-86
2021/04/30 11:55:09;;;;;;;14.10;12.70;;;9.60;80.70;;;;;;5024773;28;20219;-87
2021/04/30 11:57:35;;;;;;;13.60;12.37;;;9.70;81.50;;;;;;5026644;28;20208;-87
2021/04/30 12:00:03;;;;;;;14.17;12.73;;;9.80;82.20;;;;;;5033437;28;20200;-87
2021/04/30 12:02:30;;;;;;;13.30;11.97;;;9.80;80.30;;;;;;5027785;28;20195;-89
2021/04/30 12:04:56;;;;;;;14.70;13.40;;;9.80;79.70;;;;;;5033294;28;20189;-86
2021/04/30 12:07:25;;;;;;;14.40;13.10;;;10.00;81.90;;;;;;5025602;28;20708;-88
2021/04/30 12:09:52;;;;;;;13.73;12.50;;;10.10;79.80;;;;;;5029261;28;20192;-88
2021/04/30 12:12:28;;;;;;;12.30;11.10;;;10.00;81.00;;;;;;5022290;28;20684;-88
2021/04/30 12:15:06;;;;;;;14.07;12.60;;;10.00;80.40;;;;;;5030436;28;20220;-87
2021/04/30 12:17:37;;;;;;;14.80;13.27;;;9.90;80.40;;;;;;5031809;28;20239;-88
2021/04/30 12:20:03;;;;;;;14.47;13.07;;;9.60;80.70;;;;;;5029354;28;20548;-88
2021/04/30 12:22:29;;;;;;;13.60;12.20;;;9.70;82.10;;;;;;5035750;28;20268;-88
2021/04/30 12:25:17;;;;;;;11.77;10.50;;;9.60;79.80;;;;;;5038386;28;20191;-87
2021/04/30 12:27:43;;;;;;;12.73;11.53;;;9.60;80.70;;;;;;5025071;28;20210;-88
2021/04/30 12:30:09;;;;;;;12.40;11.30;;;9.50;80.50;;;;;;5038838;28;20258;-87
2021/04/30 12:32:35;;;;;;;13.07;11.77;;;9.40;78.20;;;;;;5029493;28;20201;-88
2021/04/30 12:35:01;;;;;;;14.13;12.47;;;9.50;81.60;;;;;;5019999;28;20576;-87
2021/04/30 12:37:27;;;;;;;12.13;10.93;;;9.60;81.60;;;;;;5020041;28;20223;-88
2021/04/30 12:39:53;;;;;;;12.73;11.53;;;9.70;80.10;;;;;;5020636;28;20189;-87
2021/04/30 12:42:18;;;;;;;12.93;11.73;;;9.70;79.40;;;;;;5029429;28;20192;-87
2021/04/30 12:44:58;;;;;;;11.87;10.77;;;9.90;81.20;;;;;;5023967;28;20208;-87
2021/04/30 12:47:25;;;;;;;75.87;16.93;;;9.90;79.80;;;;;;5019953;28;20709;-87
2021/04/30 12:49:52;;;;;;;17.03;11.53;;;10.00;79.40;;;;;;5028634;28;20196;-87
2021/04/30 12:52:19;;;;;;;11.77;10.53;;;10.00;76.70;;;;;;5030715;28;20196;-87